気象予報士の航空気象 雷雨到来

*All archives   *Admin

スポンサーサイト

上記の広告は1ヶ月以上更新のないブログに表示されています。
新しい記事を書く事で広告が消せます。
--:--  |  スポンサー広告  |  EDIT  |  Top↑

2010.04.24 (Sat)

雷雨到来

パソコンクラッシュ。


いたい。


さておき、欧州方面の航空便は落ち着きを見せ始めています。


日本と欧州を結ぶ国際線はおおむね通常運航。


ただ、欧州国内便はまだ再開していないところが残っているようで、完全に戻ったわけではないようです。


RJAA 240830Z 06008KT 020V100 9999 TS VCSH FEW030 FEW030CB SCT070 11/04 Q1017 TEMPO 4000 TSRA BR BECMG 02008KT


今日は、夕方に雨が降りました。


朝から、TAFのほうで予報はされていたので、濡れずにすんで大助かりでした。


原因は、寒気の流入が主、地上天気図だけでは、ほぼ判別できない雨です。


スパコンの性能や、ソフトの向上で、いつかは気象による災害を防げるようになったらいいですね。



 
ブログランキングに参加しています。
にほんブログ村 環境ブログ 天気・気象学へ
にほんブログ村
応援クリックをおねがします。


以下、アフィリエイトサイトです。




スポンサーサイト
22:07  |  気象・天気  |  TB(0)  |  CM(0)  |  EDIT  |  Top↑

コメントを投稿する


 管理者だけに表示  (非公開コメント投稿可能)

▲PageTop

この記事のトラックバックURL

→http://weathereucalyptus.blog115.fc2.com/tb.php/465-ee2b2aa2
この記事にトラックバックする(FC2ブログユーザー)

この記事へのトラックバック

▲PageTop

 | BLOGTOP | 
上記広告は1ヶ月以上更新のないブログに表示されています。新しい記事を書くことで広告を消せます。